sensor_id;sensor_type;location;lat;lon;timestamp;P1;durP1;ratioP1;P2;durP2;ratioP2
15915;SDS011;8057;47.830;-3.870;2023-07-31T00:01:24;17.30;;;6.80;;
15915;SDS011;8057;47.830;-3.870;2023-07-31T00:05:34;19.83;;;7.00;;
15915;SDS011;8057;47.830;-3.870;2023-07-31T00:09:44;18.13;;;7.43;;
15915;SDS011;8057;47.830;-3.870;2023-07-31T00:13:54;20.47;;;7.97;;
15915;SDS011;8057;47.830;-3.870;2023-07-31T00:18:05;18.93;;;7.23;;
15915;SDS011;8057;47.830;-3.870;2023-07-31T00:22:15;19.37;;;7.83;;
15915;SDS011;8057;47.830;-3.870;2023-07-31T00:26:25;15.37;;;7.00;;
15915;SDS011;8057;47.830;-3.870;2023-07-31T00:30:34;17.00;;;7.63;;
15915;SDS011;8057;47.830;-3.870;2023-07-31T00:34:45;20.23;;;8.13;;
15915;SDS011;8057;47.830;-3.870;2023-07-31T00:38:55;17.07;;;7.23;;
15915;SDS011;8057;47.830;-3.870;2023-07-31T00:43:04;20.30;;;7.73;;
15915;SDS011;8057;47.830;-3.870;2023-07-31T00:47:14;19.60;;;7.93;;
15915;SDS011;8057;47.830;-3.870;2023-07-31T00:51:26;20.57;;;8.00;;
15915;SDS011;8057;47.830;-3.870;2023-07-31T00:55:35;24.77;;;7.57;;
15915;SDS011;8057;47.830;-3.870;2023-07-31T00:59:46;16.90;;;7.70;;
15915;SDS011;8057;47.830;-3.870;2023-07-31T01:03:57;19.43;;;8.00;;
15915;SDS011;8057;47.830;-3.870;2023-07-31T01:08:12;23.63;;;8.03;;
15915;SDS011;8057;47.830;-3.870;2023-07-31T01:12:27;18.37;;;7.40;;
15915;SDS011;8057;47.830;-3.870;2023-07-31T01:16:37;17.33;;;7.57;;
15915;SDS011;8057;47.830;-3.870;2023-07-31T01:20:51;18.93;;;6.97;;
15915;SDS011;8057;47.830;-3.870;2023-07-31T01:25:13;15.33;;;7.33;;
15915;SDS011;8057;47.830;-3.870;2023-07-31T01:29:34;25.83;;;8.00;;
15915;SDS011;8057;47.830;-3.870;2023-07-31T01:33:49;17.63;;;7.60;;
15915;SDS011;8057;47.830;-3.870;2023-07-31T01:38:01;20.30;;;7.03;;
15915;SDS011;8057;47.830;-3.870;2023-07-31T01:42:11;20.40;;;7.57;;
15915;SDS011;8057;47.830;-3.870;2023-07-31T01:46:22;17.07;;;7.47;;
15915;SDS011;8057;47.830;-3.870;2023-07-31T01:50:32;19.00;;;7.47;;
15915;SDS011;8057;47.830;-3.870;2023-07-31T01:54:42;19.10;;;7.73;;
15915;SDS011;8057;47.830;-3.870;2023-07-31T01:58:52;18.37;;;8.00;;
15915;SDS011;8057;47.830;-3.870;2023-07-31T02:03:04;21.93;;;7.97;;
15915;SDS011;8057;47.830;-3.870;2023-07-31T02:07:13;26.03;;;8.07;;
15915;SDS011;8057;47.830;-3.870;2023-07-31T02:11:24;17.47;;;7.50;;
15915;SDS011;8057;47.830;-3.870;2023-07-31T02:15:35;17.00;;;7.17;;
15915;SDS011;8057;47.830;-3.870;2023-07-31T02:19:46;18.97;;;7.93;;
15915;SDS011;8057;47.830;-3.870;2023-07-31T02:23:57;18.00;;;7.27;;
15915;SDS011;8057;47.830;-3.870;2023-07-31T02:28:06;19.70;;;7.50;;
15915;SDS011;8057;47.830;-3.870;2023-07-31T02:32:17;19.47;;;7.20;;
15915;SDS011;8057;47.830;-3.870;2023-07-31T02:36:30;18.67;;;7.00;;
15915;SDS011;8057;47.830;-3.870;2023-07-31T02:40:40;18.90;;;7.60;;
15915;SDS011;8057;47.830;-3.870;2023-07-31T02:44:50;23.87;;;8.67;;
15915;SDS011;8057;47.830;-3.870;2023-07-31T02:49:02;18.17;;;6.73;;
15915;SDS011;8057;47.830;-3.870;2023-07-31T02:53:14;20.57;;;7.23;;
15915;SDS011;8057;47.830;-3.870;2023-07-31T02:57:23;20.37;;;7.30;;
15915;SDS011;8057;47.830;-3.870;2023-07-31T03:01:33;15.67;;;7.17;;
15915;SDS011;8057;47.830;-3.870;2023-07-31T03:05:44;18.50;;;7.33;;
15915;SDS011;8057;47.830;-3.870;2023-07-31T03:09:56;22.57;;;7.77;;
15915;SDS011;8057;47.830;-3.870;2023-07-31T03:14:09;19.93;;;7.63;;
15915;SDS011;8057;47.830;-3.870;2023-07-31T03:18:19;18.47;;;7.37;;
15915;SDS011;8057;47.830;-3.870;2023-07-31T03:22:29;18.07;;;7.10;;
15915;SDS011;8057;47.830;-3.870;2023-07-31T03:26:40;20.40;;;8.10;;
15915;SDS011;8057;47.830;-3.870;2023-07-31T03:30:57;25.37;;;8.53;;
15915;SDS011;8057;47.830;-3.870;2023-07-31T03:35:07;17.90;;;6.90;;
15915;SDS011;8057;47.830;-3.870;2023-07-31T03:39:17;19.63;;;7.17;;
15915;SDS011;8057;47.830;-3.870;2023-07-31T03:48:10;23.53;;;8.43;;
15915;SDS011;8057;47.830;-3.870;2023-07-31T03:52:24;21.90;;;8.17;;
15915;SDS011;8057;47.830;-3.870;2023-07-31T03:56:48;17.97;;;6.90;;
15915;SDS011;8057;47.830;-3.870;2023-07-31T04:01:00;21.97;;;7.27;;
15915;SDS011;8057;47.830;-3.870;2023-07-31T04:05:13;24.17;;;7.73;;
15915;SDS011;8057;47.830;-3.870;2023-07-31T04:09:42;17.67;;;6.93;;
15915;SDS011;8057;47.830;-3.870;2023-07-31T04:13:52;16.33;;;6.63;;
15915;SDS011;8057;47.830;-3.870;2023-07-31T04:18:04;19.30;;;7.47;;
15915;SDS011;8057;47.830;-3.870;2023-07-31T04:22:15;18.73;;;7.03;;
15915;SDS011;8057;47.830;-3.870;2023-07-31T04:26:26;20.10;;;7.90;;
15915;SDS011;8057;47.830;-3.870;2023-07-31T04:30:36;16.70;;;7.00;;
15915;SDS011;8057;47.830;-3.870;2023-07-31T04:34:48;22.13;;;7.53;;
15915;SDS011;8057;47.830;-3.870;2023-07-31T04:38:58;24.30;;;7.47;;
15915;SDS011;8057;47.830;-3.870;2023-07-31T04:43:12;16.20;;;7.30;;
15915;SDS011;8057;47.830;-3.870;2023-07-31T04:47:23;19.60;;;7.07;;
15915;SDS011;8057;47.830;-3.870;2023-07-31T04:51:37;21.60;;;7.63;;
15915;SDS011;8057;47.830;-3.870;2023-07-31T04:55:46;23.90;;;8.50;;
15915;SDS011;8057;47.830;-3.870;2023-07-31T04:59:58;20.30;;;8.10;;
15915;SDS011;8057;47.830;-3.870;2023-07-31T05:04:08;20.00;;;6.93;;
15915;SDS011;8057;47.830;-3.870;2023-07-31T05:08:20;18.80;;;7.57;;
15915;SDS011;8057;47.830;-3.870;2023-07-31T05:12:30;21.53;;;8.07;;
15915;SDS011;8057;47.830;-3.870;2023-07-31T05:16:46;15.10;;;6.50;;
15915;SDS011;8057;47.830;-3.870;2023-07-31T05:21:03;21.63;;;7.27;;
15915;SDS011;8057;47.830;-3.870;2023-07-31T05:25:14;22.40;;;8.40;;
15915;SDS011;8057;47.830;-3.870;2023-07-31T05:29:25;20.53;;;6.93;;
15915;SDS011;8057;47.830;-3.870;2023-07-31T05:33:34;18.10;;;7.40;;
15915;SDS011;8057;47.830;-3.870;2023-07-31T05:37:44;19.83;;;7.67;;
15915;SDS011;8057;47.830;-3.870;2023-07-31T05:41:55;20.23;;;7.77;;
15915;SDS011;8057;47.830;-3.870;2023-07-31T05:46:04;23.53;;;8.50;;
15915;SDS011;8057;47.830;-3.870;2023-07-31T05:50:16;20.07;;;8.20;;
15915;SDS011;8057;47.830;-3.870;2023-07-31T05:54:26;22.40;;;7.97;;
15915;SDS011;8057;47.830;-3.870;2023-07-31T05:58:37;20.33;;;7.93;;
15915;SDS011;8057;47.830;-3.870;2023-07-31T06:02:47;19.43;;;8.03;;
15915;SDS011;8057;47.830;-3.870;2023-07-31T06:06:58;23.10;;;8.50;;
15915;SDS011;8057;47.830;-3.870;2023-07-31T06:11:11;24.07;;;8.00;;
15915;SDS011;8057;47.830;-3.870;2023-07-31T06:15:23;22.07;;;8.53;;
15915;SDS011;8057;47.830;-3.870;2023-07-31T06:19:33;21.50;;;8.37;;
15915;SDS011;8057;47.830;-3.870;2023-07-31T06:23:43;26.43;;;8.70;;
15915;SDS011;8057;47.830;-3.870;2023-07-31T06:27:52;21.80;;;8.57;;
15915;SDS011;8057;47.830;-3.870;2023-07-31T06:32:03;23.97;;;8.23;;
15915;SDS011;8057;47.830;-3.870;2023-07-31T06:36:13;23.67;;;8.90;;
15915;SDS011;8057;47.830;-3.870;2023-07-31T06:44:50;27.03;;;9.37;;
15915;SDS011;8057;47.830;-3.870;2023-07-31T06:53:32;24.70;;;8.83;;
15915;SDS011;8057;47.830;-3.870;2023-07-31T06:57:51;25.50;;;8.47;;
15915;SDS011;8057;47.830;-3.870;2023-07-31T07:02:07;26.30;;;8.40;;
15915;SDS011;8057;47.830;-3.870;2023-07-31T07:06:19;27.13;;;8.87;;
15915;SDS011;8057;47.830;-3.870;2023-07-31T07:10:46;25.67;;;8.57;;
15915;SDS011;8057;47.830;-3.870;2023-07-31T07:14:56;19.40;;;7.60;;
15915;SDS011;8057;47.830;-3.870;2023-07-31T07:19:08;21.30;;;8.80;;
15915;SDS011;8057;47.830;-3.870;2023-07-31T07:23:33;22.27;;;7.97;;
15915;SDS011;8057;47.830;-3.870;2023-07-31T07:27:53;21.37;;;8.40;;
15915;SDS011;8057;47.830;-3.870;2023-07-31T07:32:03;25.10;;;8.63;;
15915;SDS011;8057;47.830;-3.870;2023-07-31T07:36:15;29.93;;;8.80;;
15915;SDS011;8057;47.830;-3.870;2023-07-31T07:40:27;24.80;;;9.30;;
15915;SDS011;8057;47.830;-3.870;2023-07-31T07:49:26;22.87;;;8.40;;
15915;SDS011;8057;47.830;-3.870;2023-07-31T07:53:36;25.10;;;8.03;;
15915;SDS011;8057;47.830;-3.870;2023-07-31T07:57:45;21.87;;;8.30;;
15915;SDS011;8057;47.830;-3.870;2023-07-31T08:01:59;19.57;;;7.77;;
15915;SDS011;8057;47.830;-3.870;2023-07-31T08:06:08;19.43;;;7.67;;
15915;SDS011;8057;47.830;-3.870;2023-07-31T08:10:19;22.80;;;7.57;;
15915;SDS011;8057;47.830;-3.870;2023-07-31T08:14:40;23.97;;;8.30;;
15915;SDS011;8057;47.830;-3.870;2023-07-31T08:18:54;19.97;;;8.30;;
15915;SDS011;8057;47.830;-3.870;2023-07-31T08:23:03;35.70;;;9.13;;
15915;SDS011;8057;47.830;-3.870;2023-07-31T08:27:13;26.27;;;8.07;;
15915;SDS011;8057;47.830;-3.870;2023-07-31T08:31:28;24.00;;;8.27;;
15915;SDS011;8057;47.830;-3.870;2023-07-31T08:35:53;19.30;;;7.43;;
15915;SDS011;8057;47.830;-3.870;2023-07-31T08:40:05;20.50;;;7.83;;
15915;SDS011;8057;47.830;-3.870;2023-07-31T08:44:18;24.77;;;8.13;;
15915;SDS011;8057;47.830;-3.870;2023-07-31T09:02:21;19.67;;;8.17;;
15915;SDS011;8057;47.830;-3.870;2023-07-31T09:06:38;27.17;;;8.17;;
15915;SDS011;8057;47.830;-3.870;2023-07-31T09:10:50;22.30;;;8.23;;
15915;SDS011;8057;47.830;-3.870;2023-07-31T09:15:00;25.17;;;8.40;;
15915;SDS011;8057;47.830;-3.870;2023-07-31T09:23:56;28.40;;;8.50;;
15915;SDS011;8057;47.830;-3.870;2023-07-31T09:28:08;26.77;;;8.60;;
15915;SDS011;8057;47.830;-3.870;2023-07-31T09:33:09;21.17;;;8.20;;
15915;SDS011;8057;47.830;-3.870;2023-07-31T09:37:34;21.57;;;8.17;;
15915;SDS011;8057;47.830;-3.870;2023-07-31T09:46:24;20.80;;;8.33;;
15915;SDS011;8057;47.830;-3.870;2023-07-31T09:51:05;22.13;;;8.80;;
15915;SDS011;8057;47.830;-3.870;2023-07-31T09:56:24;25.50;;;9.23;;
15915;SDS011;8057;47.830;-3.870;2023-07-31T10:01:07;19.00;;;8.83;;
15915;SDS011;8057;47.830;-3.870;2023-07-31T10:05:34;23.93;;;9.20;;
15915;SDS011;8057;47.830;-3.870;2023-07-31T10:09:45;24.93;;;9.87;;
15915;SDS011;8057;47.830;-3.870;2023-07-31T10:14:09;19.10;;;8.97;;
15915;SDS011;8057;47.830;-3.870;2023-07-31T10:18:28;25.23;;;10.00;;
15915;SDS011;8057;47.830;-3.870;2023-07-31T10:23:43;24.63;;;8.70;;
15915;SDS011;8057;47.830;-3.870;2023-07-31T10:27:56;30.40;;;10.13;;
15915;SDS011;8057;47.830;-3.870;2023-07-31T10:32:32;23.13;;;9.73;;
15915;SDS011;8057;47.830;-3.870;2023-07-31T10:42:09;28.17;;;10.57;;
15915;SDS011;8057;47.830;-3.870;2023-07-31T10:46:21;26.47;;;9.87;;
15915;SDS011;8057;47.830;-3.870;2023-07-31T10:50:47;23.60;;;9.77;;
15915;SDS011;8057;47.830;-3.870;2023-07-31T10:59:39;24.87;;;9.10;;
15915;SDS011;8057;47.830;-3.870;2023-07-31T11:03:49;21.60;;;9.30;;
15915;SDS011;8057;47.830;-3.870;2023-07-31T11:07:59;23.03;;;9.87;;
15915;SDS011;8057;47.830;-3.870;2023-07-31T11:12:10;20.23;;;8.90;;
15915;SDS011;8057;47.830;-3.870;2023-07-31T11:16:20;22.47;;;9.37;;
15915;SDS011;8057;47.830;-3.870;2023-07-31T11:20:30;21.60;;;9.07;;
15915;SDS011;8057;47.830;-3.870;2023-07-31T11:24:40;20.57;;;9.00;;
15915;SDS011;8057;47.830;-3.870;2023-07-31T11:28:51;19.20;;;8.90;;
15915;SDS011;8057;47.830;-3.870;2023-07-31T11:33:01;23.40;;;9.60;;
15915;SDS011;8057;47.830;-3.870;2023-07-31T11:37:11;23.50;;;9.00;;
15915;SDS011;8057;47.830;-3.870;2023-07-31T11:41:23;27.37;;;9.63;;
15915;SDS011;8057;47.830;-3.870;2023-07-31T11:45:34;28.73;;;10.80;;
15915;SDS011;8057;47.830;-3.870;2023-07-31T11:49:43;25.30;;;10.13;;
15915;SDS011;8057;47.830;-3.870;2023-07-31T11:53:53;25.67;;;9.23;;
15915;SDS011;8057;47.830;-3.870;2023-07-31T11:58:04;30.93;;;11.17;;
15915;SDS011;8057;47.830;-3.870;2023-07-31T12:02:15;25.80;;;11.17;;
15915;SDS011;8057;47.830;-3.870;2023-07-31T12:06:32;28.17;;;10.73;;
15915;SDS011;8057;47.830;-3.870;2023-07-31T12:10:42;29.37;;;11.90;;
15915;SDS011;8057;47.830;-3.870;2023-07-31T12:14:52;29.13;;;10.93;;
15915;SDS011;8057;47.830;-3.870;2023-07-31T12:19:03;25.77;;;11.03;;
15915;SDS011;8057;47.830;-3.870;2023-07-31T12:23:15;34.13;;;10.90;;
15915;SDS011;8057;47.830;-3.870;2023-07-31T12:27:32;33.13;;;11.80;;
15915;SDS011;8057;47.830;-3.870;2023-07-31T12:31:42;42.77;;;13.07;;
15915;SDS011;8057;47.830;-3.870;2023-07-31T12:35:53;48.83;;;14.00;;
15915;SDS011;8057;47.830;-3.870;2023-07-31T12:40:02;29.87;;;11.70;;
15915;SDS011;8057;47.830;-3.870;2023-07-31T12:44:15;35.03;;;12.47;;
15915;SDS011;8057;47.830;-3.870;2023-07-31T12:48:24;39.03;;;13.60;;
15915;SDS011;8057;47.830;-3.870;2023-07-31T12:52:34;36.97;;;12.50;;
15915;SDS011;8057;47.830;-3.870;2023-07-31T12:56:43;30.30;;;12.40;;
15915;SDS011;8057;47.830;-3.870;2023-07-31T13:00:53;34.27;;;12.63;;
15915;SDS011;8057;47.830;-3.870;2023-07-31T13:05:02;31.47;;;12.87;;
15915;SDS011;8057;47.830;-3.870;2023-07-31T13:09:13;35.47;;;12.47;;
15915;SDS011;8057;47.830;-3.870;2023-07-31T13:13:24;36.00;;;13.27;;
15915;SDS011;8057;47.830;-3.870;2023-07-31T13:17:36;39.00;;;13.30;;
15915;SDS011;8057;47.830;-3.870;2023-07-31T13:21:45;36.17;;;12.83;;
15915;SDS011;8057;47.830;-3.870;2023-07-31T13:25:56;30.13;;;13.00;;
15915;SDS011;8057;47.830;-3.870;2023-07-31T13:30:05;32.63;;;12.40;;
15915;SDS011;8057;47.830;-3.870;2023-07-31T13:34:15;29.77;;;13.27;;
15915;SDS011;8057;47.830;-3.870;2023-07-31T13:38:24;39.27;;;13.63;;
15915;SDS011;8057;47.830;-3.870;2023-07-31T13:42:35;32.50;;;13.77;;
15915;SDS011;8057;47.830;-3.870;2023-07-31T13:46:44;31.23;;;13.17;;
15915;SDS011;8057;47.830;-3.870;2023-07-31T13:50:53;39.00;;;13.73;;
15915;SDS011;8057;47.830;-3.870;2023-07-31T13:55:02;38.87;;;14.30;;
15915;SDS011;8057;47.830;-3.870;2023-07-31T13:59:14;34.43;;;12.37;;
15915;SDS011;8057;47.830;-3.870;2023-07-31T14:03:23;37.60;;;13.73;;
15915;SDS011;8057;47.830;-3.870;2023-07-31T14:07:32;31.10;;;12.43;;
15915;SDS011;8057;47.830;-3.870;2023-07-31T14:11:42;39.33;;;12.23;;
15915;SDS011;8057;47.830;-3.870;2023-07-31T14:15:52;36.97;;;13.07;;
15915;SDS011;8057;47.830;-3.870;2023-07-31T14:20:02;30.57;;;12.20;;
15915;SDS011;8057;47.830;-3.870;2023-07-31T14:24:12;38.23;;;14.33;;
15915;SDS011;8057;47.830;-3.870;2023-07-31T14:28:21;46.83;;;13.37;;
15915;SDS011;8057;47.830;-3.870;2023-07-31T14:32:31;42.57;;;13.53;;
15915;SDS011;8057;47.830;-3.870;2023-07-31T14:36:42;36.57;;;12.63;;
15915;SDS011;8057;47.830;-3.870;2023-07-31T14:40:51;35.80;;;12.90;;
15915;SDS011;8057;47.830;-3.870;2023-07-31T14:45:00;36.00;;;12.70;;
15915;SDS011;8057;47.830;-3.870;2023-07-31T14:49:11;32.97;;;12.83;;
15915;SDS011;8057;47.830;-3.870;2023-07-31T14:53:20;37.47;;;12.80;;
15915;SDS011;8057;47.830;-3.870;2023-07-31T14:57:29;38.77;;;12.70;;
15915;SDS011;8057;47.830;-3.870;2023-07-31T15:01:39;37.77;;;12.67;;
15915;SDS011;8057;47.830;-3.870;2023-07-31T15:05:51;40.53;;;13.43;;
15915;SDS011;8057;47.830;-3.870;2023-07-31T15:10:00;31.53;;;12.27;;
15915;SDS011;8057;47.830;-3.870;2023-07-31T15:14:10;31.23;;;12.87;;
15915;SDS011;8057;47.830;-3.870;2023-07-31T15:18:22;33.57;;;12.63;;
15915;SDS011;8057;47.830;-3.870;2023-07-31T15:22:33;38.23;;;11.83;;
15915;SDS011;8057;47.830;-3.870;2023-07-31T15:26:42;40.50;;;13.73;;
15915;SDS011;8057;47.830;-3.870;2023-07-31T15:30:53;37.50;;;12.83;;
15915;SDS011;8057;47.830;-3.870;2023-07-31T15:35:03;36.03;;;12.80;;
15915;SDS011;8057;47.830;-3.870;2023-07-31T15:39:14;32.30;;;11.53;;
15915;SDS011;8057;47.830;-3.870;2023-07-31T15:43:24;36.53;;;12.13;;
15915;SDS011;8057;47.830;-3.870;2023-07-31T15:47:34;37.23;;;12.53;;
15915;SDS011;8057;47.830;-3.870;2023-07-31T15:51:44;37.47;;;12.50;;
15915;SDS011;8057;47.830;-3.870;2023-07-31T15:55:54;36.27;;;12.10;;
15915;SDS011;8057;47.830;-3.870;2023-07-31T16:00:04;33.43;;;12.37;;
15915;SDS011;8057;47.830;-3.870;2023-07-31T16:04:16;35.53;;;12.17;;
15915;SDS011;8057;47.830;-3.870;2023-07-31T16:08:26;34.07;;;12.60;;
15915;SDS011;8057;47.830;-3.870;2023-07-31T16:12:37;29.47;;;11.17;;
15915;SDS011;8057;47.830;-3.870;2023-07-31T16:16:46;30.47;;;11.60;;
15915;SDS011;8057;47.830;-3.870;2023-07-31T16:20:59;30.70;;;12.20;;
15915;SDS011;8057;47.830;-3.870;2023-07-31T16:25:09;29.63;;;12.13;;
15915;SDS011;8057;47.830;-3.870;2023-07-31T16:29:20;35.13;;;12.57;;
15915;SDS011;8057;47.830;-3.870;2023-07-31T16:33:29;28.07;;;11.10;;
15915;SDS011;8057;47.830;-3.870;2023-07-31T16:37:40;31.90;;;12.03;;
15915;SDS011;8057;47.830;-3.870;2023-07-31T16:41:50;26.27;;;11.67;;
15915;SDS011;8057;47.830;-3.870;2023-07-31T16:46:01;33.53;;;12.67;;
15915;SDS011;8057;47.830;-3.870;2023-07-31T16:50:10;36.83;;;12.73;;
15915;SDS011;8057;47.830;-3.870;2023-07-31T16:54:22;38.60;;;12.50;;
15915;SDS011;8057;47.830;-3.870;2023-07-31T16:58:31;32.03;;;13.03;;
15915;SDS011;8057;47.830;-3.870;2023-07-31T17:02:42;37.07;;;12.97;;
15915;SDS011;8057;47.830;-3.870;2023-07-31T17:06:51;38.37;;;12.83;;
15915;SDS011;8057;47.830;-3.870;2023-07-31T17:11:00;35.27;;;12.63;;
15915;SDS011;8057;47.830;-3.870;2023-07-31T17:15:09;33.83;;;12.37;;
15915;SDS011;8057;47.830;-3.870;2023-07-31T17:19:20;34.67;;;12.60;;
15915;SDS011;8057;47.830;-3.870;2023-07-31T17:23:29;34.10;;;12.73;;
15915;SDS011;8057;47.830;-3.870;2023-07-31T17:27:38;39.77;;;13.50;;
15915;SDS011;8057;47.830;-3.870;2023-07-31T17:31:47;32.77;;;13.00;;
15915;SDS011;8057;47.830;-3.870;2023-07-31T17:40:22;36.80;;;13.87;;
15915;SDS011;8057;47.830;-3.870;2023-07-31T17:44:31;41.27;;;13.17;;
15915;SDS011;8057;47.830;-3.870;2023-07-31T17:48:40;31.50;;;12.73;;
15915;SDS011;8057;47.830;-3.870;2023-07-31T17:52:52;30.20;;;12.60;;
15915;SDS011;8057;47.830;-3.870;2023-07-31T17:57:01;42.27;;;13.93;;
15915;SDS011;8057;47.830;-3.870;2023-07-31T18:01:10;28.53;;;12.50;;
15915;SDS011;8057;47.830;-3.870;2023-07-31T18:05:19;25.97;;;12.37;;
15915;SDS011;8057;47.830;-3.870;2023-07-31T18:09:30;25.40;;;11.57;;
15915;SDS011;8057;47.830;-3.870;2023-07-31T18:13:41;25.43;;;11.67;;
15915;SDS011;8057;47.830;-3.870;2023-07-31T18:17:50;30.90;;;11.43;;
15915;SDS011;8057;47.830;-3.870;2023-07-31T18:21:59;30.70;;;11.57;;
15915;SDS011;8057;47.830;-3.870;2023-07-31T18:26:11;29.47;;;12.63;;
15915;SDS011;8057;47.830;-3.870;2023-07-31T18:30:20;26.60;;;11.83;;
15915;SDS011;8057;47.830;-3.870;2023-07-31T18:34:29;27.17;;;10.60;;
15915;SDS011;8057;47.830;-3.870;2023-07-31T18:38:39;27.57;;;10.43;;
15915;SDS011;8057;47.830;-3.870;2023-07-31T18:42:50;25.37;;;10.40;;
15915;SDS011;8057;47.830;-3.870;2023-07-31T18:47:00;27.10;;;9.70;;
15915;SDS011;8057;47.830;-3.870;2023-07-31T18:51:10;27.57;;;10.03;;
15915;SDS011;8057;47.830;-3.870;2023-07-31T18:55:19;21.83;;;10.10;;
15915;SDS011;8057;47.830;-3.870;2023-07-31T18:59:31;24.03;;;9.60;;
15915;SDS011;8057;47.830;-3.870;2023-07-31T19:03:40;25.30;;;9.53;;
15915;SDS011;8057;47.830;-3.870;2023-07-31T19:07:51;24.10;;;9.00;;
15915;SDS011;8057;47.830;-3.870;2023-07-31T19:12:00;23.37;;;9.17;;
15915;SDS011;8057;47.830;-3.870;2023-07-31T19:16:10;21.60;;;8.23;;
15915;SDS011;8057;47.830;-3.870;2023-07-31T19:20:21;22.77;;;8.27;;
15915;SDS011;8057;47.830;-3.870;2023-07-31T19:24:46;18.73;;;8.30;;
15915;SDS011;8057;47.830;-3.870;2023-07-31T19:29:08;19.90;;;8.17;;
15915;SDS011;8057;47.830;-3.870;2023-07-31T19:33:30;18.30;;;8.70;;
15915;SDS011;8057;47.830;-3.870;2023-07-31T19:38:03;15.93;;;8.13;;
15915;SDS011;8057;47.830;-3.870;2023-07-31T19:42:28;23.37;;;8.50;;
15915;SDS011;8057;47.830;-3.870;2023-07-31T19:46:39;18.07;;;8.37;;
15915;SDS011;8057;47.830;-3.870;2023-07-31T19:50:50;18.47;;;7.80;;
15915;SDS011;8057;47.830;-3.870;2023-07-31T19:54:59;18.30;;;7.70;;
15915;SDS011;8057;47.830;-3.870;2023-07-31T19:59:08;19.77;;;8.27;;
15915;SDS011;8057;47.830;-3.870;2023-07-31T20:03:17;15.73;;;7.77;;
15915;SDS011;8057;47.830;-3.870;2023-07-31T20:07:27;19.50;;;7.60;;
15915;SDS011;8057;47.830;-3.870;2023-07-31T20:11:36;16.73;;;7.20;;
15915;SDS011;8057;47.830;-3.870;2023-07-31T20:15:45;17.13;;;7.50;;
15915;SDS011;8057;47.830;-3.870;2023-07-31T20:19:54;17.53;;;7.73;;
15915;SDS011;8057;47.830;-3.870;2023-07-31T20:24:05;18.03;;;7.90;;
15915;SDS011;8057;47.830;-3.870;2023-07-31T20:28:15;18.23;;;7.00;;
15915;SDS011;8057;47.830;-3.870;2023-07-31T20:32:24;17.70;;;6.20;;
15915;SDS011;8057;47.830;-3.870;2023-07-31T20:36:33;13.73;;;5.90;;
15915;SDS011;8057;47.830;-3.870;2023-07-31T20:40:44;11.80;;;6.10;;
15915;SDS011;8057;47.830;-3.870;2023-07-31T20:44:54;20.63;;;5.60;;
15915;SDS011;8057;47.830;-3.870;2023-07-31T20:49:03;14.23;;;5.83;;
15915;SDS011;8057;47.830;-3.870;2023-07-31T20:53:12;12.90;;;6.17;;
15915;SDS011;8057;47.830;-3.870;2023-07-31T20:57:23;10.53;;;5.07;;
15915;SDS011;8057;47.830;-3.870;2023-07-31T21:01:32;12.53;;;5.03;;
15915;SDS011;8057;47.830;-3.870;2023-07-31T21:05:48;8.80;;;4.47;;
15915;SDS011;8057;47.830;-3.870;2023-07-31T21:09:58;13.90;;;5.70;;
15915;SDS011;8057;47.830;-3.870;2023-07-31T21:14:09;9.27;;;4.63;;
15915;SDS011;8057;47.830;-3.870;2023-07-31T21:18:18;10.57;;;5.10;;
15915;SDS011;8057;47.830;-3.870;2023-07-31T21:22:27;12.97;;;4.67;;
15915;SDS011;8057;47.830;-3.870;2023-07-31T21:26:36;10.63;;;4.80;;
15915;SDS011;8057;47.830;-3.870;2023-07-31T21:30:46;11.53;;;4.47;;
15915;SDS011;8057;47.830;-3.870;2023-07-31T21:34:55;12.10;;;4.37;;
15915;SDS011;8057;47.830;-3.870;2023-07-31T21:39:05;12.83;;;4.63;;
15915;SDS011;8057;47.830;-3.870;2023-07-31T21:43:14;10.60;;;4.93;;
15915;SDS011;8057;47.830;-3.870;2023-07-31T21:47:24;11.40;;;3.80;;
15915;SDS011;8057;47.830;-3.870;2023-07-31T21:51:33;8.73;;;3.53;;
15915;SDS011;8057;47.830;-3.870;2023-07-31T21:55:42;7.37;;;2.33;;
15915;SDS011;8057;47.830;-3.870;2023-07-31T21:59:51;6.80;;;2.50;;
15915;SDS011;8057;47.830;-3.870;2023-07-31T22:04:02;7.43;;;2.50;;
15915;SDS011;8057;47.830;-3.870;2023-07-31T22:08:12;8.83;;;2.50;;
15915;SDS011;8057;47.830;-3.870;2023-07-31T22:12:21;5.20;;;2.43;;
15915;SDS011;8057;47.830;-3.870;2023-07-31T22:16:30;8.73;;;3.30;;
15915;SDS011;8057;47.830;-3.870;2023-07-31T22:20:47;9.20;;;2.90;;
15915;SDS011;8057;47.830;-3.870;2023-07-31T22:24:56;5.23;;;2.50;;
15915;SDS011;8057;47.830;-3.870;2023-07-31T22:29:05;4.33;;;2.03;;
15915;SDS011;8057;47.830;-3.870;2023-07-31T22:33:15;3.17;;;2.20;;
15915;SDS011;8057;47.830;-3.870;2023-07-31T22:37:26;3.97;;;2.57;;
15915;SDS011;8057;47.830;-3.870;2023-07-31T22:41:35;2.77;;;2.13;;
15915;SDS011;8057;47.830;-3.870;2023-07-31T22:45:45;3.37;;;2.30;;
15915;SDS011;8057;47.830;-3.870;2023-07-31T22:49:54;3.27;;;2.37;;
15915;SDS011;8057;47.830;-3.870;2023-07-31T22:54:05;3.20;;;2.00;;
15915;SDS011;8057;47.830;-3.870;2023-07-31T22:58:14;2.80;;;2.10;;
15915;SDS011;8057;47.830;-3.870;2023-07-31T23:02:24;3.30;;;2.27;;
15915;SDS011;8057;47.830;-3.870;2023-07-31T23:06:33;2.83;;;2.00;;
15915;SDS011;8057;47.830;-3.870;2023-07-31T23:10:45;3.87;;;2.30;;
15915;SDS011;8057;47.830;-3.870;2023-07-31T23:14:56;2.70;;;2.50;;
15915;SDS011;8057;47.830;-3.870;2023-07-31T23:19:05;3.10;;;2.20;;
15915;SDS011;8057;47.830;-3.870;2023-07-31T23:23:14;4.47;;;2.73;;
15915;SDS011;8057;47.830;-3.870;2023-07-31T23:27:25;4.87;;;2.73;;
15915;SDS011;8057;47.830;-3.870;2023-07-31T23:31:34;3.87;;;2.37;;
15915;SDS011;8057;47.830;-3.870;2023-07-31T23:35:43;3.53;;;2.60;;
15915;SDS011;8057;47.830;-3.870;2023-07-31T23:39:52;5.93;;;2.70;;
15915;SDS011;8057;47.830;-3.870;2023-07-31T23:44:03;4.07;;;2.97;;
15915;SDS011;8057;47.830;-3.870;2023-07-31T23:48:12;5.27;;;3.40;;
15915;SDS011;8057;47.830;-3.870;2023-07-31T23:52:21;8.47;;;3.50;;
15915;SDS011;8057;47.830;-3.870;2023-07-31T23:56:30;4.93;;;3.27;;
